Pagina principale
METAR-TAF:

METAR-TAF

Aeroporti :

Aeroporto di Southend

Londra-Southend, Inghilterra

latitudine: 51-34N, longitudine: 000-42E, altezza: 15 m

Osservazione

Il bollettino è stato emesso 17 minuti fa, alle 17:50 UTC
Vento 14 kt da est/sud-est
Temperature 5°C
Umidità 75%
Pressione 1010 hPa
Visibilità 10 km o più
Poco nuvoloso ad un'altezza di 2700 ft

METAR: EGMC 201750Z 12014KT 9999 FEW027 05/01 Q1010

Ora: 18:07 (18:07 UTC)

Previsione

Il bollettino è stato emesso 1 ora e 9 minuti fa, alle 16:58 UTC
Previsione valida dal 20 alle 18 UTC al 21 alle 03 UTC
Vento 8 kt da est/sud-est
Visibilità 10 km o più
Poco nuvoloso ad un'altezza di 3000 ft
Evoluzione graduale
dal 20 alle 23 UTC al 21 alle 02 UTC
Nuvoloso ad un'altezza di 1200 ft
Probabilità 30% :
Temporaneamente
dal 21 alle 02 UTC al 21 alle 03 UTC
Visibilità: 8000 m
Nuvoloso ad un'altezza di 800 ft

TAF: EGMC 201658Z 2018/2103 11008KT 9999 FEW030 BECMG 2023/2102 BKN012 PROB30 TEMPO 2102/2103 8000 BKN008

Osservazioni e previsioni meteorologiche di più di 4000 aeroporti (messaggi METAR e TAF).

Le stazioni disponibili sono rappresentate dai dischi gialli e rossi sulla carta.

Puntare il mouse per vedere il nome della stazione.

Clicca sopra per visualizzare le osservazioni e previsioni meteorologiche.

Per cambiare la mappa : fare clic sui pulsanti verdi con una croce nera per ingrandire, il pulsante verde con un trattino per diminuire, o sulla freccia verde per le mappe adiacenti.


METAR-TAF: